ZYTX/SHE METAR and TAF weather

Enter ICAO airport designator
Station Type Date Time Source
ZYTX METAR 2020/07/04 10:00 UTC NOAA

ZYTX 041000Z 26005MPS CAVOK 26/18 Q1002 NOSIG


Station Type Date Time Source
ZYTX Decoded METAR 2020/07/04 10:00 UTC NOAA

Shenyang / Taokian, China (ZYTX) 41-48N 123-24E
Jul 04, 2020 - 06:00 AM EDT / 2020.07.04 1000 UTC
Wind: from the W (260 degrees) at 11 MPH (10 KT):0
Visibility: greater than 7 mile(s):0
Temperature: 78 F (26 C)
Dew Point: 64 F (18 C)
Relative Humidity: 61%
Pressure (altimeter): 29.59 in. Hg (1002 hPa)
ob: ZYTX 041000Z 26005MPS CAVOK 26/18 Q1002 NOSIG
cycle: 10

Station Type Date Time Source
ZYTX TAF 2020/07/04 12:03 UTC NOAA

TAF TAF ZYTX 040903Z 0412/0512 23004MPS 6000 NSC TX25/0506Z TN20/0421Z
TEMPO 0418/0424 -SHRA FEW026CB BKN033
BECMG 0501/0502 -SHRA FEW026CB BKN033
TEMPO 0504/0508 -TSRA SCT026CB BKN030
BECMG 0509/0510 NSW

Example: see airport list